createdAt,value
2018-12-22T00:00:37.780Z,97703.50
2018-12-22T00:03:07.007Z,97703.50
2018-12-22T00:05:36.207Z,97706.65
2018-12-22T00:08:05.424Z,97709.30
2018-12-22T00:10:34.679Z,97712.02
2018-12-22T00:13:03.958Z,97719.55
2018-12-22T00:15:33.410Z,97710.46
2018-12-22T00:18:02.508Z,97713.61
2018-12-22T00:20:32.861Z,97711.73
2018-12-22T00:23:02.224Z,97704.88
2018-12-22T00:25:31.344Z,97708.41
2018-12-22T00:28:01.559Z,97712.91
2018-12-22T00:30:30.804Z,97717.70
2018-12-22T00:32:59.913Z,97722.20
2018-12-22T00:35:28.989Z,97719.36
2018-12-22T00:37:58.110Z,97714.28
2018-12-22T00:40:27.298Z,97707.71
2018-12-22T00:42:56.459Z,97714.45
2018-12-22T00:45:25.780Z,97713.39
2018-12-22T00:47:54.915Z,97712.50
2018-12-22T00:50:24.084Z,97715.05
2018-12-22T00:52:53.193Z,97702.61
2018-12-22T00:55:22.467Z,97705.16
2018-12-22T00:57:51.653Z,97703.16
2018-12-22T01:00:20.884Z,97706.70
2018-12-22T01:02:50.019Z,97709.96
2018-12-22T01:05:19.277Z,97712.50
2018-12-22T01:07:48.448Z,97724.91
2018-12-22T01:10:17.612Z,97724.13
2018-12-22T01:12:46.754Z,97730.69
2018-12-22T01:15:16.088Z,97726.39
2018-12-22T01:17:45.185Z,97722.97
2018-12-22T01:20:14.438Z,97735.02
2018-12-22T01:22:43.549Z,97733.04
2018-12-22T01:25:12.637Z,97729.83
2018-12-22T01:27:41.759Z,97720.03
2018-12-22T01:30:11.099Z,97722.19
2018-12-22T01:32:41.161Z,97725.80
2018-12-22T01:35:10.348Z,97725.62
2018-12-22T01:37:39.848Z,97720.77
2018-12-22T01:40:09.335Z,97715.17
2018-12-22T01:42:38.657Z,97715.49
2018-12-22T01:45:08.107Z,97723.52
2018-12-22T01:47:37.310Z,97722.24
2018-12-22T01:50:07.371Z,97722.53
2018-12-22T01:52:36.620Z,97722.58
2018-12-22T01:55:06.524Z,97720.47
2018-12-22T01:57:35.720Z,97726.83
2018-12-22T02:00:05.902Z,97734.67
2018-12-22T02:02:35.150Z,97726.27
2018-12-22T02:05:05.007Z,97731.27
2018-12-22T02:07:34.190Z,97732.47
2018-12-22T02:10:03.456Z,97725.00
2018-12-22T02:12:32.568Z,97724.06
2018-12-22T02:15:01.688Z,97727.95
2018-12-22T02:17:30.948Z,97723.18
2018-12-22T02:20:00.130Z,97724.63
2018-12-22T02:22:29.557Z,97721.80
2018-12-22T02:24:58.814Z,97724.84
2018-12-22T02:27:28.090Z,97718.48
2018-12-22T02:29:57.200Z,97718.27
2018-12-22T02:32:26.688Z,97724.45
2018-12-22T02:34:55.979Z,97726.89
2018-12-22T02:37:25.082Z,97722.80
2018-12-22T02:39:54.180Z,97716.44
2018-12-22T02:42:23.360Z,97704.48
2018-12-22T02:44:52.476Z,97701.63
2018-12-22T02:47:21.596Z,97706.33
2018-12-22T02:49:50.719Z,97707.03
2018-12-22T02:52:19.832Z,97708.20
2018-12-22T02:54:49.048Z,97706.64
2018-12-22T02:57:18.168Z,97715.72
2018-12-22T02:59:47.289Z,97716.51
2018-12-22T03:02:16.477Z,97715.83
2018-12-22T03:04:45.580Z,97718.38
2018-12-22T03:07:14.821Z,97715.05
2018-12-22T03:09:44.083Z,97718.69
2018-12-22T03:12:13.168Z,97723.47
2018-12-22T03:14:42.505Z,97713.96
2018-12-22T03:17:12.158Z,97713.67
2018-12-22T03:19:41.358Z,97710.28
2018-12-22T03:22:10.532Z,97710.28
2018-12-22T03:24:39.720Z,97706.58
2018-12-22T03:27:09.235Z,97703.54
2018-12-22T03:29:38.342Z,97709.34
2018-12-22T03:32:07.526Z,97704.14
2018-12-22T03:34:36.725Z,97697.56
2018-12-22T03:37:06.573Z,97698.84
2018-12-22T03:39:35.730Z,97705.45
2018-12-22T03:42:05.732Z,97707.03
2018-12-22T03:44:35.414Z,97706.26
2018-12-22T03:47:04.701Z,97703.72
2018-12-22T03:49:34.043Z,97704.78
2018-12-22T03:52:03.487Z,97710.78
2018-12-22T03:54:32.716Z,97705.09
2018-12-22T03:57:01.909Z,97700.78
2018-12-22T03:59:31.214Z,97701.77
2018-12-22T04:02:00.410Z,97705.41
2018-12-22T04:04:29.555Z,97697.14
2018-12-22T04:06:58.713Z,97701.48
2018-12-22T04:09:27.996Z,97695.52
2018-12-22T04:11:57.258Z,97689.55
2018-12-22T04:14:26.386Z,97690.42
2018-12-22T04:16:56.048Z,97687.28
2018-12-22T04:19:25.195Z,97689.72
2018-12-22T04:21:54.675Z,97692.83
2018-12-22T04:24:24.176Z,97695.08
2018-12-22T04:26:53.650Z,97697.80
2018-12-22T04:29:23.394Z,97690.16
2018-12-22T04:31:52.674Z,97694.31
2018-12-22T04:34:22.010Z,97710.28
2018-12-22T04:36:51.364Z,97698.23
2018-12-22T04:39:20.592Z,97697.02
2018-12-22T04:41:49.757Z,97701.52
2018-12-22T04:44:18.940Z,97704.86
2018-12-22T04:46:48.096Z,97707.09
2018-12-22T04:49:17.213Z,97704.16
2018-12-22T04:51:46.340Z,97712.33
2018-12-22T04:54:15.808Z,97708.02
2018-12-22T04:56:44.926Z,97712.77
2018-12-22T04:59:14.145Z,97717.13
2018-12-22T05:01:43.258Z,97703.41
2018-12-22T05:04:13.130Z,97711.44
2018-12-22T05:06:42.304Z,97704.13
2018-12-22T05:09:11.968Z,97702.66
2018-12-22T05:11:41.088Z,97693.16
2018-12-22T05:14:10.247Z,97710.28
2018-12-22T05:16:39.900Z,97694.31
2018-12-22T05:19:09.020Z,97702.22
2018-12-22T05:21:38.133Z,97702.34
2018-12-22T05:24:07.317Z,97706.16
2018-12-22T05:26:36.596Z,97709.78
2018-12-22T05:29:05.850Z,97712.13
2018-12-22T05:31:34.993Z,97719.77
2018-12-22T05:34:04.188Z,97711.56
2018-12-22T05:36:33.324Z,97713.13
2018-12-22T05:39:02.488Z,97720.97
2018-12-22T05:41:31.618Z,97717.83
2018-12-22T05:44:00.759Z,97718.14
2018-12-22T05:46:29.876Z,97717.48
2018-12-22T05:48:59.025Z,97714.45
2018-12-22T05:51:28.212Z,97716.94
2018-12-22T05:53:57.361Z,97732.02
2018-12-22T05:56:26.473Z,97750.23
2018-12-22T05:58:55.683Z,97752.81
2018-12-22T06:01:24.842Z,97742.95
2018-12-22T06:03:54.620Z,97752.14
2018-12-22T06:06:23.822Z,97723.30
2018-12-22T06:08:53.404Z,97759.96
2018-12-22T06:11:22.691Z,97753.87
2018-12-22T06:13:51.835Z,97763.78
2018-12-22T06:16:20.954Z,97758.67
2018-12-22T06:18:50.093Z,97758.88
2018-12-22T06:21:19.888Z,97762.70
2018-12-22T06:23:49.056Z,97778.19
2018-12-22T06:26:18.247Z,97779.27
2018-12-22T06:28:47.372Z,97763.73
2018-12-22T06:31:16.504Z,97772.20
2018-12-22T06:33:46.180Z,97789.36
2018-12-22T06:36:15.424Z,97794.73
2018-12-22T06:38:44.616Z,97776.52
2018-12-22T06:41:13.815Z,97780.06
2018-12-22T06:43:42.953Z,97788.19
2018-12-22T06:46:12.064Z,97803.17
2018-12-22T06:48:41.273Z,97821.50
2018-12-22T06:51:10.399Z,97821.60
2018-12-22T06:53:39.572Z,97821.70
2018-12-22T06:56:08.697Z,97816.98
2018-12-22T06:58:37.811Z,97835.38
2018-12-22T07:01:07.108Z,97847.27
2018-12-22T07:03:36.228Z,97839.02
2018-12-22T07:06:05.417Z,97858.52
2018-12-22T07:08:34.535Z,97874.13
2018-12-22T07:11:03.782Z,97868.11
2018-12-22T07:13:32.932Z,97864.11
2018-12-22T07:16:02.032Z,97847.72
2018-12-22T07:18:31.191Z,97850.77
2018-12-22T07:21:00.379Z,97856.68
2018-12-22T07:23:29.682Z,97852.41
2018-12-22T07:25:58.896Z,97874.33
2018-12-22T07:28:28.098Z,97880.98
2018-12-22T07:30:57.241Z,97875.48
2018-12-22T07:33:26.535Z,97887.58
2018-12-22T07:35:55.768Z,97890.17
2018-12-22T07:38:24.912Z,97902.23
2018-12-22T07:40:54.047Z,97900.41
2018-12-22T07:43:23.256Z,97914.92
2018-12-22T07:45:52.448Z,97920.84
2018-12-22T07:48:22.398Z,97915.78
2018-12-22T07:50:51.528Z,97919.33
2018-12-22T07:53:20.717Z,97927.14
2018-12-22T07:55:49.861Z,97928.61
2018-12-22T07:58:19.000Z,97940.96
2018-12-22T08:00:51.087Z,97951.74
2018-12-22T08:03:20.232Z,97953.72
2018-12-22T08:05:49.448Z,97959.37
2018-12-22T08:08:18.663Z,97976.95
2018-12-22T08:10:47.864Z,97971.92
2018-12-22T08:13:17.028Z,97976.47
2018-12-22T08:15:52.876Z,97981.83
2018-12-22T08:18:22.124Z,97983.19
2018-12-22T08:20:51.415Z,97982.72
2018-12-22T08:23:20.664Z,97991.31
2018-12-22T08:25:49.898Z,97997.45
2018-12-22T08:28:19.063Z,98005.58
2018-12-22T08:30:48.308Z,98003.39
2018-12-22T08:33:17.615Z,97988.43
2018-12-22T08:35:46.736Z,97992.54
2018-12-22T08:38:15.861Z,97994.16
2018-12-22T08:40:45.127Z,98000.94
2018-12-22T08:43:14.407Z,98027.97
2018-12-22T08:45:43.648Z,98027.99
2018-12-22T08:48:12.809Z,98035.71
2018-12-22T08:50:42.047Z,98036.75
2018-12-22T08:53:11.274Z,98047.09
2018-12-22T08:55:40.386Z,98058.64
2018-12-22T08:58:10.177Z,98073.66
2018-12-22T09:00:39.387Z,98069.03
2018-12-22T09:03:08.508Z,98076.83
2018-12-22T09:05:38.353Z,98077.32
2018-12-22T09:08:07.680Z,98079.24
2018-12-22T09:10:36.804Z,98099.81
2018-12-22T09:13:05.937Z,98094.66
2018-12-22T09:15:35.501Z,98102.67
2018-12-22T09:18:04.780Z,98102.64
2018-12-22T09:20:34.448Z,98107.37
2018-12-22T09:23:03.616Z,98102.02
2018-12-22T09:25:46.377Z,98117.63
2018-12-22T09:28:15.655Z,98121.17
2018-12-22T09:30:44.919Z,98136.64
2018-12-22T09:33:14.132Z,98139.13
2018-12-22T09:35:43.426Z,98143.91
2018-12-22T09:38:12.925Z,98150.75
2018-12-22T09:40:42.111Z,98166.31
2018-12-22T09:43:11.679Z,98166.84
2018-12-22T09:45:41.179Z,98180.81
2018-12-22T09:48:10.369Z,98178.30
2018-12-22T09:50:39.628Z,98177.99
2018-12-22T09:53:10.058Z,98200.27
2018-12-22T09:55:39.327Z,98192.51
2018-12-22T09:58:08.938Z,98168.23
2018-12-22T10:00:38.105Z,98205.20
2018-12-22T10:03:07.325Z,98188.47
2018-12-22T10:08:21.721Z,98203.42
2018-12-22T10:10:51.600Z,98189.03
2018-12-22T10:13:20.836Z,98167.88
2018-12-22T10:15:50.024Z,98171.83
2018-12-22T10:18:19.279Z,98175.27
2018-12-22T10:20:48.512Z,98172.14
2018-12-22T10:23:18.044Z,98178.13
2018-12-22T10:25:47.308Z,98188.06
2018-12-22T10:28:16.601Z,98195.95
2018-12-22T10:30:45.900Z,98198.14
2018-12-22T10:33:15.118Z,98202.83
2018-12-22T10:35:44.300Z,98194.33
2018-12-22T10:38:13.484Z,98192.50
2018-12-22T10:40:42.733Z,98184.88
2018-12-22T10:43:11.914Z,98196.55
2018-12-22T10:45:41.143Z,98194.33
2018-12-22T10:48:10.340Z,98208.60
2018-12-22T10:50:39.525Z,98202.78
2018-12-22T10:53:08.838Z,98207.19
2018-12-22T10:55:38.072Z,98198.08
2018-12-22T10:58:07.252Z,98202.80
2018-12-22T11:00:36.421Z,98194.56
2018-12-22T11:03:05.747Z,98190.46
2018-12-22T11:05:34.921Z,98191.88
2018-12-22T11:08:04.217Z,98195.34
2018-12-22T11:10:33.489Z,98179.80
2018-12-22T11:13:03.426Z,98184.08
2018-12-22T11:15:33.008Z,98184.69
2018-12-22T11:18:02.244Z,98175.34
2018-12-22T11:20:31.578Z,98176.24
2018-12-22T11:23:01.141Z,98178.20
2018-12-22T11:25:30.412Z,98188.11
2018-12-22T11:27:59.585Z,98185.63
2018-12-22T11:30:35.564Z,98175.23
2018-12-22T11:33:04.799Z,98182.20
2018-12-22T11:35:34.061Z,98188.00
2018-12-22T11:38:03.197Z,98193.27
2018-12-22T11:40:32.862Z,98181.13
2018-12-22T11:43:02.005Z,98189.63
2018-12-22T11:45:31.316Z,98189.70
2018-12-22T11:48:15.514Z,98200.23
2018-12-22T11:50:44.732Z,98200.65
2018-12-22T11:53:14.019Z,98198.09
2018-12-22T11:55:43.284Z,98217.94
2018-12-22T11:58:12.492Z,98237.12
2018-12-22T12:00:42.236Z,98238.77
2018-12-22T12:03:11.532Z,98245.17
2018-12-22T12:05:41.012Z,98240.45
2018-12-22T12:08:10.275Z,98229.34
2018-12-22T12:10:39.511Z,98214.75
2018-12-22T12:13:08.775Z,98240.89
2018-12-22T12:15:47.351Z,98228.33
2018-12-22T12:18:34.808Z,98243.11
2018-12-22T12:21:04.508Z,98243.91
2018-12-22T12:23:33.676Z,98243.83
2018-12-22T12:26:02.952Z,98235.75
2018-12-22T12:28:32.134Z,98207.83
2018-12-22T12:31:01.473Z,98244.64
2018-12-22T12:33:30.801Z,98266.55
2018-12-22T12:36:00.091Z,98253.63
2018-12-22T12:38:29.284Z,98243.44
2018-12-22T12:40:58.490Z,98244.84
2018-12-22T12:43:27.827Z,98247.28
2018-12-22T12:45:57.100Z,98246.08
2018-12-22T12:48:27.761Z,98252.14
2018-12-22T12:50:57.001Z,98260.08
2018-12-22T12:53:26.163Z,98259.59
2018-12-22T12:55:55.420Z,98261.98
2018-12-22T12:58:24.696Z,98260.80
2018-12-22T13:00:54.020Z,98269.43
2018-12-22T13:03:23.285Z,98258.05
2018-12-22T13:05:52.617Z,98270.11
2018-12-22T13:08:21.942Z,98259.16
2018-12-22T13:10:51.188Z,98259.03
2018-12-22T13:13:34.859Z,98259.89
2018-12-22T13:16:04.312Z,98254.33
2018-12-22T13:18:37.488Z,98252.20
2018-12-22T13:21:08.976Z,98252.23
2018-12-22T13:23:38.996Z,98256.69
2018-12-22T13:26:09.591Z,98256.32
2018-12-22T13:28:38.824Z,98263.45
2018-12-22T13:31:08.032Z,98262.67
2018-12-22T13:33:38.643Z,98259.12
2018-12-22T13:36:08.627Z,98260.75
2018-12-22T13:38:45.372Z,98259.61
2018-12-22T13:41:15.592Z,98274.29
2018-12-22T13:43:44.897Z,98273.23
2018-12-22T13:46:14.184Z,98280.80
2018-12-22T13:48:43.842Z,98280.19
2018-12-22T13:54:25.715Z,98286.62
2018-12-22T13:56:55.239Z,98295.66
2018-12-22T13:59:24.621Z,98294.88
2018-12-22T14:02:00.436Z,98295.11
2018-12-22T14:04:32.352Z,98300.56
2018-12-22T14:07:01.837Z,98308.00
2018-12-22T14:09:31.132Z,98308.36
2018-12-22T14:12:00.400Z,98315.08
2018-12-22T14:14:34.977Z,98318.28
2018-12-22T14:17:13.200Z,98322.13
2018-12-22T14:19:49.676Z,98317.80
2018-12-22T14:22:18.839Z,98319.88
2018-12-22T14:24:51.449Z,98323.04
2018-12-22T14:27:21.524Z,98322.34
2018-12-22T14:29:50.940Z,98320.45
2018-12-22T14:32:26.909Z,98322.60
2018-12-22T14:35:00.025Z,98335.77
2018-12-22T14:37:29.291Z,98337.30
2018-12-22T14:39:58.979Z,98337.69
2018-12-22T14:42:28.464Z,98331.52
2018-12-22T14:44:57.664Z,98340.70
2018-12-22T14:47:27.104Z,98344.86
2018-12-22T14:49:56.307Z,98357.28
2018-12-22T14:52:25.566Z,98351.88
2018-12-22T14:54:55.395Z,98337.17
2018-12-22T14:57:25.920Z,98351.75
2018-12-22T14:59:55.218Z,98349.95
2018-12-22T15:02:25.490Z,98348.45
2018-12-22T15:04:55.025Z,98353.89
2018-12-22T15:07:24.631Z,98353.98
2018-12-22T15:09:53.880Z,98361.59
2018-12-22T15:12:23.104Z,98363.00
2018-12-22T15:14:52.269Z,98364.46
2018-12-22T15:17:21.512Z,98372.38
2018-12-22T15:19:51.226Z,98373.05
2018-12-22T15:22:20.475Z,98378.77
2018-12-22T15:24:49.672Z,98389.84
2018-12-22T15:27:18.927Z,98391.23
2018-12-22T15:29:48.158Z,98389.48
2018-12-22T15:32:17.419Z,98400.91
2018-12-22T15:34:46.626Z,98403.03
2018-12-22T15:37:15.876Z,98401.42
2018-12-22T15:39:45.064Z,98398.58
2018-12-22T15:42:14.300Z,98395.92
2018-12-22T15:44:43.707Z,98391.97
2018-12-22T15:47:12.895Z,98392.27
2018-12-22T15:49:42.203Z,98408.83
2018-12-22T15:52:11.513Z,98407.73
2018-12-22T15:54:40.704Z,98410.39
2018-12-22T15:57:09.942Z,98414.84
2018-12-22T15:59:39.199Z,98418.16
2018-12-22T16:02:08.796Z,98415.80
2018-12-22T16:04:38.084Z,98419.61
2018-12-22T16:07:07.344Z,98422.94
2018-12-22T16:09:36.602Z,98418.83
2018-12-22T16:12:06.387Z,98420.70
2018-12-22T16:14:35.597Z,98421.19
2018-12-22T16:17:04.873Z,98427.02
2018-12-22T16:19:34.310Z,98426.53
2018-12-22T16:22:03.555Z,98429.05
2018-12-22T16:24:32.820Z,98437.45
2018-12-22T16:27:02.072Z,98438.72
2018-12-22T16:29:44.153Z,98442.22
2018-12-22T16:32:13.795Z,98445.09
2018-12-22T16:34:43.109Z,98447.66
2018-12-22T16:37:12.927Z,98459.71
2018-12-22T16:39:42.242Z,98481.34
2018-12-22T16:42:11.425Z,98496.58
2018-12-22T16:44:40.945Z,98482.63
2018-12-22T16:47:10.144Z,98462.16
2018-12-22T16:49:39.442Z,98487.06
2018-12-22T16:52:08.951Z,98478.34
2018-12-22T16:54:38.183Z,98494.66
2018-12-22T16:57:07.394Z,98508.78
2018-12-22T16:59:37.932Z,98510.99
2018-12-22T17:02:52.544Z,98521.31
2018-12-22T17:05:21.981Z,98472.00
2018-12-22T17:07:51.287Z,98469.15
2018-12-22T17:10:20.988Z,98472.80
2018-12-22T17:12:50.184Z,98485.45
2018-12-22T17:15:22.166Z,98491.81
2018-12-22T17:17:50.742Z,98491.64
2018-12-22T17:20:20.080Z,98483.87
2018-12-22T17:23:05.126Z,98493.08
2018-12-22T17:25:41.938Z,98492.77
2018-12-22T17:28:11.174Z,98502.27
2018-12-22T17:30:40.368Z,98518.09
2018-12-22T17:33:18.917Z,98521.61
2018-12-22T17:35:43.589Z,98526.36
2018-12-22T17:38:12.875Z,98522.08
2018-12-22T17:40:42.199Z,98527.48
2018-12-22T17:43:11.868Z,98525.73
2018-12-22T17:45:41.096Z,98528.88
2018-12-22T17:48:11.229Z,98522.41
2018-12-22T17:50:40.517Z,98514.48
2018-12-22T17:53:09.824Z,98518.28
2018-12-22T17:55:39.100Z,98517.49
2018-12-22T17:58:09.092Z,98528.28
2018-12-22T18:00:38.816Z,98530.48
2018-12-22T18:03:10.956Z,98538.89
2018-12-22T18:05:40.980Z,98544.59
2018-12-22T18:08:10.282Z,98537.14
2018-12-22T18:10:39.564Z,98533.34
2018-12-22T18:13:08.813Z,98539.70
2018-12-22T18:15:38.076Z,98546.98
2018-12-22T18:18:07.318Z,98544.75
2018-12-22T18:20:36.666Z,98549.52
2018-12-22T18:23:05.853Z,98540.31
2018-12-22T18:25:35.456Z,98539.05
2018-12-22T18:28:04.818Z,98544.45
2018-12-22T18:30:34.089Z,98540.00
2018-12-22T18:33:03.676Z,98533.84
2018-12-22T18:35:32.976Z,98526.05
2018-12-22T18:38:02.206Z,98536.84
2018-12-22T18:40:31.515Z,98535.39
2018-12-22T18:43:00.688Z,98548.39
2018-12-22T18:45:30.056Z,98550.30
2018-12-22T18:47:59.236Z,98551.72
2018-12-22T18:50:29.120Z,98553.96
2018-12-22T18:52:58.419Z,98559.19
2018-12-22T18:55:27.676Z,98561.72
2018-12-22T18:57:59.656Z,98557.44
2018-12-22T19:00:29.627Z,98551.27
2018-12-22T19:02:59.015Z,98542.23
2018-12-22T19:05:28.624Z,98549.19
2018-12-22T19:08:05.070Z,98556.80
2018-12-22T19:10:46.572Z,98552.36
2018-12-22T19:13:16.190Z,98563.00
2018-12-22T19:15:46.018Z,98567.59
2018-12-22T19:18:15.245Z,98564.58
2018-12-22T19:20:51.621Z,98569.47
2018-12-22T19:23:23.620Z,98562.31
2018-12-22T19:25:53.432Z,98572.02
2018-12-22T19:28:22.602Z,98578.97
2018-12-22T19:30:51.857Z,98577.39
2018-12-22T19:33:21.402Z,98571.23
2018-12-22T19:35:51.230Z,98568.52
2018-12-22T19:38:20.626Z,98573.91
2018-12-22T19:40:50.229Z,98577.08
2018-12-22T19:43:19.448Z,98584.06
2018-12-22T19:45:49.629Z,98585.67
2018-12-22T19:48:18.981Z,98583.61
2018-12-22T19:50:48.219Z,98597.89
2018-12-22T19:53:17.514Z,98592.00
2018-12-22T19:55:47.865Z,98602.95
2018-12-22T19:58:17.097Z,98592.33
2018-12-22T20:00:46.331Z,98598.05
2018-12-22T20:03:15.556Z,98602.02
2018-12-22T20:05:44.766Z,98599.00
2018-12-22T20:08:14.552Z,98603.89
2018-12-22T20:10:45.122Z,98608.34
2018-12-22T20:13:14.996Z,98610.24
2018-12-22T20:15:44.191Z,98605.33
2018-12-22T20:18:14.264Z,98613.56
2018-12-22T20:20:43.491Z,98615.17
2018-12-22T20:23:12.715Z,98614.06
2018-12-22T20:25:42.687Z,98619.92
2018-12-22T20:28:12.756Z,98628.34
2018-12-22T20:30:42.100Z,98608.04
2018-12-22T20:33:11.257Z,98609.14
2018-12-22T20:35:40.473Z,98623.06
2018-12-22T20:38:09.677Z,98625.87
2018-12-22T20:40:39.296Z,98626.34
2018-12-22T20:43:08.486Z,98627.78
2018-12-22T20:45:37.659Z,98627.28
2018-12-22T20:48:06.928Z,98632.83
2018-12-22T20:50:36.518Z,98638.57
2018-12-22T20:53:05.900Z,98625.27
2018-12-22T20:55:35.257Z,98633.19
2018-12-22T20:58:04.806Z,98631.92
2018-12-22T21:00:34.032Z,98627.36
2018-12-22T21:03:03.265Z,98630.66
2018-12-22T21:05:35.961Z,98619.55
2018-12-22T21:08:06.106Z,98636.66
2018-12-22T21:10:35.709Z,98634.60
2018-12-22T21:13:05.136Z,98625.72
2018-12-22T21:15:34.337Z,98639.00
2018-12-22T21:18:03.611Z,98639.51
2018-12-22T21:20:32.792Z,98649.00
2018-12-22T21:23:02.614Z,98635.41
2018-12-22T21:25:31.832Z,98639.70
2018-12-22T21:28:01.092Z,98636.70
2018-12-22T21:30:30.275Z,98643.69
2018-12-22T21:32:59.506Z,98646.23
2018-12-22T21:35:28.703Z,98651.92
2018-12-22T21:37:58.314Z,98663.81
2018-12-22T21:40:27.512Z,98670.45
2018-12-22T21:42:57.237Z,98665.41
2018-12-22T21:45:27.283Z,98670.30
2018-12-22T21:47:56.537Z,98664.88
2018-12-22T21:50:25.671Z,98668.41
2018-12-22T21:52:54.900Z,98664.43
2018-12-22T21:55:24.481Z,98669.95
2018-12-22T21:57:53.576Z,98674.75
2018-12-22T22:00:22.877Z,98677.59
2018-12-22T22:02:52.092Z,98680.77
2018-12-22T22:05:21.625Z,98679.64
2018-12-22T22:07:50.934Z,98676.66
2018-12-22T22:10:20.609Z,98667.75
2018-12-22T22:12:50.819Z,98678.55
2018-12-22T22:15:20.993Z,98669.02
2018-12-22T22:17:50.251Z,98665.87
2018-12-22T22:20:19.384Z,98662.06
2018-12-22T22:22:48.867Z,98662.34
2018-12-22T22:25:18.258Z,98674.69
2018-12-22T22:27:47.624Z,98679.79
2018-12-22T22:30:16.990Z,98676.94
2018-12-22T22:32:46.342Z,98679.81
2018-12-22T22:35:15.908Z,98681.08
2018-12-22T22:37:45.171Z,98684.41
2018-12-22T22:40:14.420Z,98681.34
2018-12-22T22:42:43.679Z,98672.71
2018-12-22T22:45:12.917Z,98685.52
2018-12-22T22:47:42.144Z,98695.22
2018-12-22T22:50:11.302Z,98696.31
2018-12-22T22:52:40.715Z,98698.84
2018-12-22T22:55:09.928Z,98700.19
2018-12-22T22:57:39.144Z,98695.25
2018-12-22T23:00:14.336Z,98694.45
2018-12-22T23:02:43.451Z,98701.14
2018-12-22T23:05:12.724Z,98707.00
2018-12-22T23:07:41.836Z,98710.00
2018-12-22T23:10:11.012Z,98707.30
2018-12-22T23:12:40.229Z,98711.50
2018-12-22T23:15:09.361Z,98720.86
2018-12-22T23:17:39.332Z,98711.63
2018-12-22T23:20:08.702Z,98714.88
2018-12-22T23:22:38.143Z,98714.02
2018-12-22T23:25:07.752Z,98715.17
2018-12-22T23:27:37.010Z,98720.53
2018-12-22T23:30:07.815Z,98719.31
2018-12-22T23:32:37.168Z,98721.84
2018-12-22T23:35:06.847Z,98715.81
2018-12-22T23:37:36.136Z,98712.03
2018-12-22T23:40:05.858Z,98728.63
2018-12-22T23:42:35.576Z,98730.61
2018-12-22T23:45:05.348Z,98738.82
2018-12-22T23:47:35.008Z,98745.65
2018-12-22T23:50:05.476Z,98742.46
2018-12-22T23:52:34.610Z,98734.02
2018-12-22T23:55:03.830Z,98732.56
2018-12-22T23:57:33.132Z,98733.47
